Time;durP1;ratioP1;P1;durP2;ratioP2;P2;SDS_P1;SDS_P2;PMS_P1;PMS_P2;Temp;Humidity;BMP_temperature;BMP_pressure;BME280_temperature;BME280_humidity;BME280_pressure;Samples;Min_cycle;Max_cycle;Signal;HPM_P1;HPM_P2
2023/09/09 00:01:32;;;;;;;16.95;15.15;;;18.70;99.90;;;;;;4756030;30;20094;-73
2023/09/09 00:03:59;;;;;;;17.27;14.88;;;18.70;99.90;;;;;;4739568;30;20085;-73
2023/09/09 00:06:24;;;;;;;21.00;14.88;;;18.70;99.90;;;;;;4739693;30;20086;-73
2023/09/09 00:08:50;;;;;;;16.85;14.73;;;18.70;99.90;;;;;;4739849;30;20469;-74
2023/09/09 00:11:16;;;;;;;18.52;15.82;;;18.70;99.90;;;;;;4755099;30;20060;-73
2023/09/09 00:13:45;;;;;;;18.85;15.95;;;18.60;99.90;;;;;;4739489;30;20398;-73
2023/09/09 00:16:11;;;;;;;18.52;14.52;;;18.70;99.90;;;;;;4755373;30;20524;-73
2023/09/09 00:18:37;;;;;;;19.20;15.45;;;18.60;99.90;;;;;;4739311;30;20131;-73
2023/09/09 00:21:03;;;;;;;17.38;15.25;;;18.60;99.90;;;;;;4739523;30;20052;-73
2023/09/09 00:23:29;;;;;;;17.33;15.48;;;18.60;99.90;;;;;;4755455;30;20098;-73
2023/09/09 00:25:55;;;;;;;17.85;14.98;;;18.60;99.90;;;;;;4739571;30;20095;-73
2023/09/09 00:28:20;;;;;;;18.70;14.95;;;18.50;99.90;;;;;;4739085;30;20081;-73
2023/09/09 00:30:46;;;;;;;17.05;14.75;;;18.50;99.90;;;;;;4755078;30;20052;-73
2023/09/09 00:33:12;;;;;;;20.35;15.27;;;18.50;99.90;;;;;;4739606;30;20612;-73
2023/09/09 00:35:38;;;;;;;17.50;15.57;;;18.40;99.90;;;;;;4738996;30;20131;-73
2023/09/09 00:38:06;;;;;;;18.00;14.77;;;18.50;99.90;;;;;;4738107;30;20067;-73
2023/09/09 00:40:32;;;;;;;19.38;15.75;;;18.40;99.90;;;;;;4755045;30;20059;-73
2023/09/09 00:42:57;;;;;;;18.95;15.95;;;18.40;99.90;;;;;;4738972;30;20052;-73
2023/09/09 00:45:24;;;;;;;22.15;16.90;;;18.40;99.90;;;;;;4738934;30;20059;-73
2023/09/09 00:47:50;;;;;;;19.00;15.77;;;18.40;99.90;;;;;;4738805;30;20052;-73
2023/09/09 00:50:16;;;;;;;19.35;15.63;;;18.30;99.90;;;;;;4738733;30;20052;-73
2023/09/09 00:52:42;;;;;;;19.70;14.50;;;18.30;99.90;;;;;;4738779;30;20105;-73
2023/09/09 00:55:11;;;;;;;20.23;16.10;;;18.30;99.90;;;;;;4738820;30;20056;-73
2023/09/09 00:57:37;;;;;;;20.35;16.02;;;18.30;99.90;;;;;;4738701;30;20515;-73
2023/09/09 01:00:09;;;;;;;19.33;15.95;;;18.30;99.90;;;;;;4738553;30;20134;-73
2023/09/09 01:02:39;;;;;;;20.30;16.30;;;18.30;99.90;;;;;;4738918;30;20052;-73
2023/09/09 01:05:07;;;;;;;19.17;15.70;;;18.30;99.90;;;;;;4738867;30;20110;-73
2023/09/09 01:07:48;;;;;;;18.25;15.38;;;18.30;99.90;;;;;;4754562;30;20144;-73
2023/09/09 01:10:16;;;;;;;19.88;14.93;;;18.30;99.90;;;;;;4738505;30;20056;-73
2023/09/09 01:12:42;;;;;;;21.40;16.52;;;18.30;99.90;;;;;;4754196;30;20501;-73
2023/09/09 01:15:09;;;;;;;25.08;16.30;;;18.30;99.90;;;;;;4754249;30;20060;-73
2023/09/09 01:17:36;;;;;;;20.88;16.02;;;18.30;99.90;;;;;;4738685;30;20379;-74
2023/09/09 01:20:12;;;;;;;21.73;17.30;;;18.20;99.90;;;;;;4754354;30;20051;-74
2023/09/09 01:22:39;;;;;;;20.88;16.13;;;18.20;99.90;;;;;;4738611;30;20059;-73
2023/09/09 01:25:05;;;;;;;19.05;15.63;;;18.20;99.90;;;;;;4738463;30;20052;-74
2023/09/09 01:27:31;;;;;;;20.15;15.48;;;18.10;99.90;;;;;;4738264;30;20481;-73
2023/09/09 01:29:57;;;;;;;19.70;16.70;;;18.00;99.90;;;;;;4738426;30;20051;-73
2023/09/09 01:32:23;;;;;;;20.58;17.60;;;18.10;99.90;;;;;;4754026;30;20052;-74
2023/09/09 01:34:50;;;;;;;20.63;17.77;;;18.10;99.90;;;;;;4738342;30;20137;-73
2023/09/09 01:37:16;;;;;;;22.00;17.15;;;18.10;99.90;;;;;;4753868;30;20063;-74
2023/09/09 01:39:41;;;;;;;21.13;17.52;;;18.10;99.90;;;;;;4737930;30;20052;-73
2023/09/09 01:42:07;;;;;;;19.92;17.45;;;18.10;99.90;;;;;;4738175;30;20052;-73
2023/09/09 01:44:33;;;;;;;25.83;18.58;;;18.00;99.90;;;;;;4737918;30;20056;-73
2023/09/09 01:46:58;;;;;;;20.08;17.10;;;18.00;99.90;;;;;;4738199;30;20048;-74
2023/09/09 01:49:24;;;;;;;21.42;18.23;;;18.00;99.90;;;;;;4753660;30;20108;-74
2023/09/09 01:51:49;;;;;;;23.60;17.25;;;18.00;99.90;;;;;;4753454;30;20051;-74
2023/09/09 01:54:15;;;;;;;21.77;16.52;;;17.90;99.90;;;;;;4737884;30;20090;-73
2023/09/09 01:56:41;;;;;;;22.80;17.92;;;17.90;99.90;;;;;;4753712;30;20044;-73
2023/09/09 01:59:06;;;;;;;20.38;17.30;;;17.90;99.90;;;;;;4753678;30;20044;-73
2023/09/09 02:01:32;;;;;;;23.67;18.75;;;17.80;99.90;;;;;;4753675;30;20165;-73
2023/09/09 02:03:57;;;;;;;25.88;19.73;;;17.80;99.90;;;;;;4753609;30;20513;-73
2023/09/09 02:06:23;;;;;;;21.92;18.08;;;17.80;99.90;;;;;;4737797;30;20052;-73
2023/09/09 02:08:48;;;;;;;19.15;16.40;;;17.80;99.90;;;;;;4737409;30;20444;-73
2023/09/09 02:11:14;;;;;;;22.65;18.17;;;17.70;99.90;;;;;;4737240;30;20145;-73
2023/09/09 02:13:42;;;;;;;25.55;17.63;;;17.70;99.90;;;;;;4753428;30;20052;-74
2023/09/09 02:16:08;;;;;;;21.02;17.08;;;17.70;99.90;;;;;;4753411;30;20044;-73
2023/09/09 02:18:37;;;;;;;21.90;17.10;;;17.70;99.90;;;;;;4737551;30;20063;-73
2023/09/09 02:21:03;;;;;;;24.63;17.77;;;17.70;99.90;;;;;;4753103;30;20521;-73
2023/09/09 02:23:29;;;;;;;22.38;16.95;;;17.70;99.90;;;;;;4737607;30;20485;-73
2023/09/09 02:25:55;;;;;;;22.00;17.75;;;17.60;99.90;;;;;;4737358;30;20094;-73
2023/09/09 02:28:21;;;;;;;29.85;22.45;;;17.60;99.90;;;;;;4753218;30;20482;-73
2023/09/09 02:30:47;;;;;;;23.75;18.88;;;17.60;99.90;;;;;;4737298;30;20063;-73
2023/09/09 02:33:13;;;;;;;24.30;20.05;;;17.60;99.90;;;;;;4737343;30;20106;-73
2023/09/09 02:35:44;;;;;;;22.00;17.77;;;17.60;99.90;;;;;;4753229;30;20051;-73
2023/09/09 02:38:10;;;;;;;22.25;18.63;;;17.60;99.90;;;;;;4752978;30;20059;-73
2023/09/09 02:40:36;;;;;;;25.13;19.13;;;17.50;99.90;;;;;;4737098;30;20052;-73
2023/09/09 02:43:02;;;;;;;24.85;19.88;;;17.50;99.90;;;;;;4737283;30;20090;-73
2023/09/09 02:45:28;;;;;;;28.67;21.92;;;17.50;99.90;;;;;;4737301;30;20054;-73
2023/09/09 02:47:53;;;;;;;25.92;21.33;;;17.40;99.90;;;;;;4737176;30;20047;-73
2023/09/09 02:50:19;;;;;;;27.60;21.52;;;17.40;99.90;;;;;;4752939;30;20048;-73
2023/09/09 02:52:47;;;;;;;28.63;21.48;;;17.40;99.90;;;;;;4737062;30;20091;-73
2023/09/09 02:55:13;;;;;;;28.67;21.75;;;17.40;99.90;;;;;;4736948;30;20060;-73
2023/09/09 02:57:38;;;;;;;26.58;20.67;;;17.40;99.90;;;;;;4736962;30;20114;-73
2023/09/09 03:00:06;;;;;;;32.55;22.27;;;17.30;99.90;;;;;;4738342;30;20094;-73
2023/09/09 03:02:32;;;;;;;28.00;21.75;;;17.30;99.90;;;;;;4743039;30;20083;-73
2023/09/09 03:04:58;;;;;;;26.08;21.05;;;17.30;99.90;;;;;;4743088;30;20079;-73
2023/09/09 03:07:23;;;;;;;25.67;18.48;;;17.30;99.90;;;;;;4742640;30;20047;-73
2023/09/09 03:09:50;;;;;;;23.77;17.92;;;17.30;99.90;;;;;;4758431;30;20100;-74
2023/09/09 03:12:20;;;;;;;22.73;17.08;;;17.30;99.90;;;;;;4742597;30;20094;-73
2023/09/09 03:14:47;;;;;;;26.42;20.80;;;17.20;99.90;;;;;;4742773;30;20100;-73
2023/09/09 03:17:13;;;;;;;24.30;19.83;;;17.10;99.90;;;;;;4742922;30;20052;-73
2023/09/09 03:19:39;;;;;;;28.42;21.52;;;17.10;99.90;;;;;;4742561;30;20060;-73
2023/09/09 03:22:04;;;;;;;25.35;20.00;;;17.10;99.90;;;;;;4758715;30;20047;-73
2023/09/09 03:24:30;;;;;;;29.02;22.10;;;17.10;99.90;;;;;;4758611;30;20508;-73
2023/09/09 03:26:56;;;;;;;28.50;23.23;;;17.10;99.90;;;;;;4742706;30;20137;-73
2023/09/09 03:29:21;;;;;;;31.05;23.23;;;17.10;99.90;;;;;;4742593;30;20047;-73
2023/09/09 03:31:47;;;;;;;35.42;25.02;;;17.10;99.90;;;;;;4742388;30;20052;-73
2023/09/09 03:34:13;;;;;;;31.52;24.25;;;17.10;99.90;;;;;;4742478;30;20117;-73
2023/09/09 03:36:39;;;;;;;31.52;23.88;;;17.10;99.90;;;;;;4742462;30;20201;-73
2023/09/09 03:39:05;;;;;;;34.85;26.58;;;17.10;99.90;;;;;;4758362;30;20450;-73
2023/09/09 03:41:31;;;;;;;34.05;25.20;;;17.10;99.90;;;;;;4742503;30;20587;-73
2023/09/09 03:43:59;;;;;;;34.60;27.20;;;17.10;99.90;;;;;;4758438;30;20086;-73
2023/09/09 03:46:25;;;;;;;35.05;27.45;;;17.10;99.90;;;;;;4742422;30;20048;-73
2023/09/09 03:48:50;;;;;;;38.17;27.63;;;17.10;99.90;;;;;;4742230;30;20067;-73
2023/09/09 03:51:17;;;;;;;35.60;27.85;;;17.10;99.90;;;;;;4742415;30;20064;-73
2023/09/09 03:53:42;;;;;;;35.33;28.50;;;17.10;99.90;;;;;;4742367;30;20561;-73
2023/09/09 03:56:08;;;;;;;36.83;28.38;;;17.10;99.90;;;;;;4758387;30;20051;-73
2023/09/09 03:58:33;;;;;;;36.35;27.92;;;17.10;99.90;;;;;;4758358;30;20131;-73
2023/09/09 04:01:04;;;;;;;37.53;29.38;;;17.10;99.90;;;;;;4742167;30;20075;-73
2023/09/09 04:03:33;;;;;;;40.47;28.92;;;17.10;99.90;;;;;;4742216;30;20400;-73
2023/09/09 04:05:59;;;;;;;45.75;33.47;;;17.10;99.90;;;;;;4742452;30;20051;-73
2023/09/09 04:08:24;;;;;;;47.28;35.00;;;17.00;99.90;;;;;;4742411;30;20048;-73
2023/09/09 04:10:50;;;;;;;48.90;35.15;;;17.00;99.90;;;;;;4742024;30;20064;-73
2023/09/09 04:13:16;;;;;;;47.75;36.60;;;17.10;99.90;;;;;;4739655;30;20117;-73
2023/09/09 04:15:41;;;;;;;49.95;35.35;;;17.10;99.90;;;;;;4739506;30;20486;-73
2023/09/09 04:18:09;;;;;;;45.78;36.13;;;17.10;99.90;;;;;;4739156;30;20060;-73
2023/09/09 04:20:35;;;;;;;47.80;36.38;;;17.10;99.90;;;;;;4739598;30;20067;-73
2023/09/09 04:23:01;;;;;;;46.25;33.78;;;17.10;99.90;;;;;;4739348;30;20474;-73
2023/09/09 04:25:26;;;;;;;58.35;41.50;;;17.10;99.90;;;;;;4739335;30;20135;-73
2023/09/09 04:27:52;;;;;;;50.90;39.78;;;17.10;99.90;;;;;;4755176;30;20079;-73
2023/09/09 04:30:17;;;;;;;48.97;36.20;;;17.10;99.90;;;;;;4739483;30;20056;-73
2023/09/09 04:32:43;;;;;;;47.88;37.08;;;17.10;99.90;;;;;;4739164;30;20052;-73
2023/09/09 04:35:09;;;;;;;51.60;38.35;;;17.10;99.90;;;;;;4755068;30;20052;-73
2023/09/09 04:37:34;;;;;;;55.17;39.72;;;17.10;99.90;;;;;;4755066;30;20045;-73
2023/09/09 04:40:00;;;;;;;51.22;38.53;;;17.00;99.90;;;;;;4739274;30;20471;-73
2023/09/09 04:42:26;;;;;;;49.20;37.78;;;17.00;99.90;;;;;;4739077;30;20056;-73
2023/09/09 04:44:51;;;;;;;56.50;40.05;;;17.00;99.90;;;;;;4739215;30;20044;-73
2023/09/09 04:47:17;;;;;;;48.70;38.03;;;17.00;99.90;;;;;;4754563;30;20052;-74
2023/09/09 04:49:42;;;;;;;52.63;39.88;;;17.00;99.90;;;;;;4754838;30;20199;-74
2023/09/09 04:52:08;;;;;;;51.58;38.40;;;17.00;99.90;;;;;;4738911;30;20052;-73
2023/09/09 04:54:34;;;;;;;52.90;39.35;;;17.00;99.90;;;;;;4738041;30;20390;-73
2023/09/09 04:57:01;;;;;;;53.53;38.05;;;17.00;99.90;;;;;;4754066;30;20052;-73
2023/09/09 04:59:27;;;;;;;55.15;38.88;;;16.90;99.90;;;;;;4738626;30;20060;-73
2023/09/09 05:01:53;;;;;;;57.30;40.97;;;16.90;99.90;;;;;;4738498;30;20044;-74
2023/09/09 05:04:18;;;;;;;53.83;39.88;;;16.90;99.90;;;;;;4738774;30;20056;-73
2023/09/09 05:06:44;;;;;;;58.78;41.50;;;16.80;99.90;;;;;;4738427;30;20083;-73
2023/09/09 05:09:10;;;;;;;54.13;41.08;;;16.90;99.90;;;;;;4738274;30;20109;-73
2023/09/09 05:11:35;;;;;;;53.65;39.92;;;16.90;99.90;;;;;;4738207;30;20539;-73
2023/09/09 05:14:01;;;;;;;54.72;40.60;;;16.90;99.90;;;;;;4738129;30;20106;-73
2023/09/09 05:16:28;;;;;;;55.97;41.95;;;16.80;99.90;;;;;;4754297;30;20091;-73
2023/09/09 05:18:54;;;;;;;57.38;41.05;;;16.80;99.90;;;;;;4738087;30;20063;-73
2023/09/09 05:21:19;;;;;;;50.33;39.38;;;16.80;99.90;;;;;;4738362;30;20056;-73
2023/09/09 05:23:45;;;;;;;54.35;40.28;;;16.80;99.90;;;;;;4737670;30;20048;-73
2023/09/09 05:26:17;;;;;;;52.90;38.97;;;16.80;99.90;;;;;;4753970;30;20139;-73
2023/09/09 05:28:42;;;;;;;57.50;42.38;;;16.80;99.90;;;;;;4738185;30;20493;-73
2023/09/09 05:31:08;;;;;;;51.75;39.15;;;16.80;99.90;;;;;;4738024;30;20066;-74
2023/09/09 05:33:33;;;;;;;55.08;41.17;;;16.80;99.90;;;;;;4737942;30;20048;-73
2023/09/09 05:35:59;;;;;;;51.53;38.92;;;16.90;99.90;;;;;;4737930;30;20048;-73
2023/09/09 05:38:26;;;;;;;50.60;38.55;;;16.90;99.90;;;;;;4737874;30;20055;-73
2023/09/09 05:40:53;;;;;;;49.40;36.47;;;16.80;99.90;;;;;;4753714;30;20084;-73
2023/09/09 05:43:18;;;;;;;51.70;38.60;;;16.90;99.90;;;;;;4753605;30;20055;-73
2023/09/09 05:45:44;;;;;;;49.38;37.50;;;16.90;99.90;;;;;;4753702;30;20056;-73
2023/09/09 05:48:12;;;;;;;52.42;39.95;;;17.00;99.90;;;;;;4738059;30;20119;-73
2023/09/09 05:50:38;;;;;;;53.05;40.67;;;17.10;99.90;;;;;;4753751;30;20052;-73
2023/09/09 05:53:06;;;;;;;56.42;43.42;;;17.10;99.90;;;;;;4753567;30;20110;-73
2023/09/09 05:55:32;;;;;;;51.58;39.70;;;17.10;99.90;;;;;;4737435;30;20078;-73
2023/09/09 05:57:58;;;;;;;50.28;39.97;;;17.20;99.90;;;;;;4738124;30;20056;-73
2023/09/09 06:00:23;;;;;;;48.40;38.13;;;17.30;99.90;;;;;;4737558;30;20428;-73
2023/09/09 06:02:49;;;;;;;51.65;39.22;;;17.30;99.90;;;;;;4737773;30;20052;-73
2023/09/09 06:05:17;;;;;;;52.25;40.30;;;17.40;99.90;;;;;;4737641;30;20052;-73
2023/09/09 06:07:44;;;;;;;52.03;38.97;;;17.50;99.90;;;;;;4737394;30;20555;-73
2023/09/09 06:10:10;;;;;;;46.80;37.33;;;17.60;99.90;;;;;;4737370;30;20097;-74
2023/09/09 06:12:35;;;;;;;50.25;38.97;;;17.70;99.90;;;;;;4753449;30;20060;-73
2023/09/09 06:15:01;;;;;;;48.28;38.08;;;17.80;99.90;;;;;;4753394;30;20052;-73
2023/09/09 06:17:27;;;;;;;53.20;41.33;;;17.90;99.90;;;;;;4737373;30;20098;-73
2023/09/09 06:19:52;;;;;;;47.65;37.95;;;18.00;99.90;;;;;;4737340;30;20056;-74
2023/09/09 06:22:18;;;;;;;49.92;39.58;;;18.10;99.90;;;;;;4737408;30;20099;-74
2023/09/09 06:24:44;;;;;;;45.15;38.13;;;18.20;99.90;;;;;;4737002;30;20067;-74
2023/09/09 06:27:09;;;;;;;52.80;42.88;;;18.30;99.90;;;;;;4737087;30;20060;-75
2023/09/09 06:29:35;;;;;;;52.95;42.30;;;18.40;99.90;;;;;;4753269;30;20051;-75
2023/09/09 06:32:03;;;;;;;48.50;38.83;;;18.50;99.90;;;;;;4737036;30;20056;-75
2023/09/09 06:34:29;;;;;;;48.38;40.00;;;18.60;99.90;;;;;;4736925;30;20060;-75
2023/09/09 06:36:54;;;;;;;57.17;47.83;;;18.80;99.90;;;;;;4736659;30;20051;-75
2023/09/09 06:39:20;;;;;;;62.03;50.40;;;18.80;99.90;;;;;;4737395;30;20097;-74
2023/09/09 06:41:46;;;;;;;59.00;47.92;;;19.00;99.90;;;;;;4736923;30;20119;-74
2023/09/09 06:44:11;;;;;;;81.97;64.07;;;19.10;99.90;;;;;;4737190;30;20056;-75
2023/09/09 06:46:37;;;;;;;69.57;57.70;;;19.20;99.90;;;;;;4737230;30;20095;-74
2023/09/09 06:49:03;;;;;;;71.05;57.88;;;19.30;99.90;;;;;;4736972;30;20075;-75
2023/09/09 06:51:29;;;;;;;68.07;55.78;;;19.40;99.90;;;;;;4752949;30;20127;-74
2023/09/09 06:53:57;;;;;;;63.60;52.28;;;19.50;99.90;;;;;;4736795;30;20142;-74
2023/09/09 06:56:23;;;;;;;69.53;59.75;;;19.60;99.90;;;;;;4737175;30;20143;-74
2023/09/09 06:58:48;;;;;;;66.20;55.30;;;19.70;99.90;;;;;;4752648;30;20126;-74
2023/09/09 07:01:14;;;;;;;66.80;57.05;;;19.80;99.90;;;;;;4736785;30;20417;-74
2023/09/09 07:03:42;;;;;;;61.47;52.22;;;19.90;99.90;;;;;;4736932;30;20056;-74
2023/09/09 07:06:08;;;;;;;64.53;57.05;;;20.00;99.90;;;;;;4736900;30;20056;-74
2023/09/09 07:08:39;;;;;;;58.03;50.38;;;20.10;99.90;;;;;;4736925;30;20481;-75
2023/09/09 07:11:04;;;;;;;57.35;49.63;;;20.10;99.90;;;;;;4736525;30;20416;-75
2023/09/09 07:13:30;;;;;;;67.88;57.88;;;20.20;99.90;;;;;;4752498;30;20056;-75
2023/09/09 07:15:55;;;;;;;75.00;62.35;;;20.30;99.90;;;;;;4736714;30;20060;-74
2023/09/09 07:18:22;;;;;;;73.30;61.03;;;20.40;99.90;;;;;;4752555;30;20519;-75
2023/09/09 07:20:48;;;;;;;75.05;60.83;;;20.50;99.90;;;;;;4752479;30;20087;-75
2023/09/09 07:23:18;;;;;;;71.38;61.03;;;20.50;99.90;;;;;;4736557;30;20054;-75
2023/09/09 07:25:44;;;;;;;71.13;57.85;;;20.60;99.90;;;;;;4736801;30;20044;-75
2023/09/09 07:28:14;;;;;;;74.70;60.97;;;20.60;99.90;;;;;;4736591;30;20052;-75
2023/09/09 07:30:39;;;;;;;64.13;55.17;;;20.80;99.90;;;;;;4736829;30;20056;-75
2023/09/09 07:33:05;;;;;;;73.00;60.97;;;20.80;99.90;;;;;;4736454;30;20052;-75
2023/09/09 07:35:31;;;;;;;73.80;61.95;;;20.90;99.90;;;;;;4736519;30;20048;-74
2023/09/09 07:37:56;;;;;;;74.32;59.00;;;21.00;99.90;;;;;;4736458;30;20189;-74
2023/09/09 07:40:22;;;;;;;67.72;57.20;;;21.00;99.90;;;;;;4736520;30;20056;-75
2023/09/09 07:42:50;;;;;;;69.30;57.75;;;21.20;99.90;;;;;;4752918;30;20048;-75
2023/09/09 07:45:16;;;;;;;75.10;57.83;;;21.20;99.90;;;;;;4736880;30;20052;-75
2023/09/09 07:47:42;;;;;;;76.35;56.58;;;21.30;99.90;;;;;;4739092;30;20060;-75
2023/09/09 07:50:08;;;;;;;89.93;66.63;;;21.50;99.90;;;;;;4739605;30;20108;-74
2023/09/09 07:52:34;;;;;;;571.90;118.68;;;21.50;99.90;;;;;;4739805;30;20055;-74
2023/09/09 07:54:59;;;;;;;183.73;71.43;;;21.60;99.90;;;;;;4739832;30;20060;-74
2023/09/09 07:57:25;;;;;;;77.10;60.67;;;21.60;99.90;;;;;;4755667;30;20193;-75
2023/09/09 07:59:51;;;;;;;87.90;67.10;;;21.70;99.90;;;;;;4739879;30;20135;-75
2023/09/09 08:02:16;;;;;;;79.85;63.15;;;21.80;99.90;;;;;;4739858;30;20494;-74
2023/09/09 08:04:42;;;;;;;91.00;64.80;;;21.90;99.90;;;;;;4739408;30;20048;-74
2023/09/09 08:07:08;;;;;;;88.22;67.22;;;22.00;99.90;;;;;;4755556;30;20055;-75
2023/09/09 08:09:34;;;;;;;516.38;122.57;;;22.10;99.90;;;;;;4739457;30;20059;-75
2023/09/09 08:11:59;;;;;;;169.43;81.43;;;22.10;99.90;;;;;;4755018;30;20056;-75
2023/09/09 08:14:25;;;;;;;109.95;82.10;;;22.20;99.90;;;;;;4739383;30;20056;-75
2023/09/09 08:16:50;;;;;;;105.25;79.60;;;22.20;99.90;;;;;;4739323;30;20481;-74
2023/09/09 08:19:17;;;;;;;113.63;76.65;;;22.20;99.90;;;;;;4739403;30;20055;-74
2023/09/09 08:21:43;;;;;;;106.82;77.60;;;22.30;99.90;;;;;;4739141;30;20158;-74
2023/09/09 08:24:08;;;;;;;102.35;76.00;;;22.30;99.90;;;;;;4739404;30;20083;-73
2023/09/09 08:26:34;;;;;;;100.57;78.90;;;22.40;99.90;;;;;;4755113;30;20512;-74
2023/09/09 08:29:00;;;;;;;111.20;79.80;;;22.50;99.90;;;;;;4731884;30;20063;-74
2023/09/09 08:31:25;;;;;;;125.72;84.90;;;22.50;99.90;;;;;;4736876;30;20068;-74
2023/09/09 08:33:51;;;;;;;118.07;83.90;;;22.60;99.90;;;;;;4721147;30;20514;-74
2023/09/09 08:36:17;;;;;;;111.95;85.55;;;22.60;99.90;;;;;;4721314;30;20140;-73
2023/09/09 08:38:42;;;;;;;114.22;86.97;;;22.70;99.90;;;;;;4721259;30;20064;-73
2023/09/09 08:41:43;;;;;;;113.35;89.18;;;22.70;99.90;;;;;;4736909;30;20080;-74
2023/09/09 08:44:22;;;;;;;114.03;88.53;;;22.80;99.90;;;;;;4721048;30;20414;-75
2023/09/09 08:46:48;;;;;;;121.13;94.28;;;22.80;99.90;;;;;;4721143;30;20136;-75
2023/09/09 08:49:17;;;;;;;112.47;87.95;;;22.90;99.90;;;;;;4721379;30;20131;-74
2023/09/09 08:52:03;;;;;;;107.60;86.15;;;22.90;99.90;;;;;;4721298;30;20061;-75
2023/09/09 08:54:29;;;;;;;110.57;85.50;;;23.00;99.90;;;;;;4721328;30;20059;-74
2023/09/09 08:56:57;;;;;;;105.85;83.18;;;23.10;99.90;;;;;;4720853;30;20409;-74
2023/09/09 08:59:23;;;;;;;101.65;79.03;;;23.10;99.90;;;;;;4720383;30;20055;-75
2023/09/09 09:01:51;;;;;;;94.97;77.38;;;23.20;99.90;;;;;;4720915;30;20056;-75
2023/09/09 09:04:18;;;;;;;98.85;78.88;;;23.20;99.90;;;;;;4736629;30;20060;-75
2023/09/09 09:06:47;;;;;;;94.57;75.15;;;23.30;99.90;;;;;;4720843;30;20052;-74
2023/09/09 09:09:16;;;;;;;98.70;77.18;;;23.40;99.90;;;;;;4720982;30;20045;-74
2023/09/09 09:11:43;;;;;;;99.50;75.85;;;23.40;99.90;;;;;;4720544;30;20072;-74
2023/09/09 09:14:09;;;;;;;101.32;78.50;;;23.40;99.90;;;;;;4720651;30;20061;-75
2023/09/09 09:16:41;;;;;;;85.85;68.28;;;23.40;99.90;;;;;;4736575;30;20056;-75
2023/09/09 09:19:15;;;;;;;;;;;23.50;99.90;;;;;;4721124;30;20114;-75
2023/09/09 09:21:42;;;;;;;88.25;68.93;;;23.40;99.90;;;;;;4720684;30;19956;-74
2023/09/09 09:24:08;;;;;;;91.35;70.10;;;23.40;99.90;;;;;;4720762;30;20065;-74
2023/09/09 09:26:40;;;;;;;89.35;69.35;;;23.50;99.90;;;;;;4720742;30;20056;-75
2023/09/09 09:29:06;;;;;;;90.22;69.72;;;23.60;99.90;;;;;;4720720;30;20052;-75
2023/09/09 09:31:41;;;;;;;84.85;70.25;;;23.60;99.90;;;;;;4719961;30;20060;-74
2023/09/09 09:34:10;;;;;;;;;;;23.80;99.90;;;;;;4720729;30;20061;-75
2023/09/09 09:36:36;;;;;;;85.78;67.70;;;23.80;99.90;;;;;;4736493;30;19927;-75
2023/09/09 09:39:09;;;;;;;90.32;70.55;;;23.90;99.90;;;;;;4735984;30;20056;-74
2023/09/09 09:41:38;;;;;;;77.55;60.40;;;23.90;99.90;;;;;;4720461;30;20060;-75
2023/09/09 09:44:04;;;;;;;89.57;66.82;;;24.00;99.90;;;;;;4720372;30;20069;-75
2023/09/09 09:46:30;;;;;;;80.38;64.38;;;24.00;99.90;;;;;;4735841;30;20052;-75
2023/09/09 09:48:55;;;;;;;79.45;57.65;;;24.00;99.90;;;;;;4720180;30;20106;-75
2023/09/09 09:51:24;;;;;;;78.72;64.80;;;24.10;99.90;;;;;;4720308;30;20521;-75
2023/09/09 09:53:55;;;;;;;77.93;64.03;;;24.10;99.90;;;;;;4735945;30;20052;-74
2023/09/09 09:56:21;;;;;;;74.75;58.50;;;24.20;99.90;;;;;;4720152;30;20593;-74
2023/09/09 09:58:49;;;;;;;79.90;63.63;;;24.30;99.90;;;;;;4735873;30;20139;-74
2023/09/09 10:01:15;;;;;;;73.13;55.17;;;24.40;99.90;;;;;;4719848;30;20112;-74
2023/09/09 10:03:51;;;;;;;69.70;56.58;;;24.60;99.90;;;;;;4720052;30;20410;-74
2023/09/09 10:06:24;;;;;;;63.83;50.47;;;24.50;99.90;;;;;;4719841;30;20084;-74
2023/09/09 10:09:08;;;;;;;60.28;51.05;;;24.60;99.90;;;;;;4719852;30;20064;-72
2023/09/09 10:11:49;;;;;;;69.15;56.55;;;24.70;99.90;;;;;;4719413;30;20057;-73
2023/09/09 10:14:17;;;;;;;78.03;62.15;;;24.80;99.90;;;;;;4719735;30;20075;-74
2023/09/09 10:16:44;;;;;;;75.18;60.67;;;24.80;99.90;;;;;;4731147;30;20080;-74
2023/09/09 10:19:11;;;;;;;74.57;58.90;;;24.90;99.90;;;;;;4737137;30;20067;-74
2023/09/09 10:21:37;;;;;;;68.80;57.08;;;25.00;99.90;;;;;;4737323;30;20078;-74
2023/09/09 10:24:05;;;;;;;65.93;55.50;;;25.00;99.90;;;;;;4736922;30;20039;-75
2023/09/09 10:26:32;;;;;;;61.15;49.42;;;25.10;99.90;;;;;;4737285;30;20060;-75
2023/09/09 10:29:00;;;;;;;58.70;49.30;;;25.20;99.90;;;;;;4737169;30;20052;-75
2023/09/09 10:31:30;;;;;;;58.17;46.13;;;25.20;99.90;;;;;;4737342;30;20048;-75
2023/09/09 10:33:57;;;;;;;53.55;44.95;;;25.30;99.90;;;;;;4736944;30;20056;-74
2023/09/09 10:36:24;;;;;;;57.85;46.67;;;25.20;99.90;;;;;;4753002;30;20064;-75
2023/09/09 10:38:52;;;;;;;58.05;49.03;;;25.20;99.90;;;;;;4737145;30;20501;-75
2023/09/09 10:41:17;;;;;;;43.58;37.88;;;25.20;99.90;;;;;;4736986;30;20525;-74
2023/09/09 10:43:43;;;;;;;51.28;39.72;;;25.10;99.90;;;;;;4753052;30;20044;-74
2023/09/09 10:46:09;;;;;;;44.30;35.45;;;25.30;99.90;;;;;;4736919;30;20066;-74
2023/09/09 10:48:35;;;;;;;46.22;38.70;;;25.40;99.90;;;;;;4752799;30;20140;-74
2023/09/09 10:51:05;;;;;;;49.42;40.03;;;25.60;99.90;;;;;;4737060;30;20379;-74
2023/09/09 10:53:32;;;;;;;44.45;37.05;;;25.70;99.90;;;;;;4736824;30;20056;-74
2023/09/09 10:56:22;;;;;;;48.08;39.47;;;25.90;99.90;;;;;;4736868;30;20505;-74
2023/09/09 10:58:50;;;;;;;42.10;34.10;;;25.90;99.90;;;;;;4726394;30;20547;-74
2023/09/09 11:01:26;;;;;;;44.70;36.97;;;26.10;99.90;;;;;;4752847;30;20102;-76
2023/09/09 11:03:52;;;;;;;36.38;29.40;;;25.90;99.90;;;;;;4736786;30;20044;-74
2023/09/09 11:06:20;;;;;;;34.85;26.27;;;25.90;99.90;;;;;;4752419;30;20114;-74
2023/09/09 11:08:47;;;;;;;39.95;32.58;;;26.10;99.90;;;;;;4752524;30;20559;-75
2023/09/09 11:11:23;;;;;;;44.03;39.08;;;26.10;99.90;;;;;;4736546;30;20569;-74
2023/09/09 11:14:03;;;;;;;41.53;34.38;;;26.10;99.90;;;;;;4752767;30;20127;-74
2023/09/09 11:16:33;;;;;;;55.08;45.30;;;26.40;99.90;;;;;;4722755;30;20059;-74
2023/09/09 11:19:03;;;;;;;52.65;44.28;;;26.40;99.90;;;;;;4719473;30;20080;-73
2023/09/09 11:21:34;;;;;;;47.40;38.83;;;26.60;99.90;;;;;;4720351;30;20574;-72
2023/09/09 11:24:01;;;;;;;36.60;31.40;;;26.60;99.90;;;;;;4738749;30;20056;-76
2023/09/09 11:26:28;;;;;;;36.50;31.08;;;26.70;99.90;;;;;;4738366;30;20387;-74
2023/09/09 11:28:57;;;;;;;40.13;32.53;;;26.70;99.90;;;;;;4738358;30;20054;-73
2023/09/09 11:31:24;;;;;;;32.10;27.92;;;26.70;99.90;;;;;;4721178;30;20057;-74
2023/09/09 11:33:50;;;;;;;29.67;26.20;;;26.80;99.90;;;;;;4722473;30;20055;-74
2023/09/09 11:36:16;;;;;;;31.42;25.30;;;26.70;99.90;;;;;;4737829;30;20060;-74
2023/09/09 11:38:43;;;;;;;25.75;21.13;;;26.70;99.90;;;;;;4722630;30;20110;-74
2023/09/09 11:41:09;;;;;;;21.27;18.50;;;26.80;99.90;;;;;;4722621;30;20060;-74
2023/09/09 11:43:34;;;;;;;21.92;15.23;;;26.80;99.90;;;;;;4738113;30;20390;-74
2023/09/09 11:46:00;;;;;;;14.95;12.55;;;26.80;99.90;;;;;;4722820;30;20056;-74
2023/09/09 11:48:26;;;;;;;15.00;12.02;;;26.90;99.90;;;;;;4722420;30;20053;-74
2023/09/09 11:50:52;;;;;;;19.52;14.38;;;26.90;99.90;;;;;;4738304;30;20571;-74
2023/09/09 11:53:20;;;;;;;15.95;13.80;;;26.90;99.90;;;;;;4722263;30;20060;-74
2023/09/09 11:55:52;;;;;;;12.38;11.05;;;26.80;99.90;;;;;;4737921;30;20518;-74
2023/09/09 11:58:18;;;;;;;16.00;11.70;;;26.60;99.90;;;;;;4737918;30;20064;-74
2023/09/09 12:00:43;;;;;;;12.98;11.43;;;26.60;99.90;;;;;;4722254;30;20052;-74
2023/09/09 12:03:09;;;;;;;13.35;10.82;;;26.70;99.90;;;;;;4737945;30;20049;-74
2023/09/09 12:05:34;;;;;;;10.85;9.48;;;26.80;99.90;;;;;;4721966;30;20139;-74
2023/09/09 12:08:02;;;;;;;16.27;13.80;;;26.80;99.90;;;;;;4722274;30;20052;-74
2023/09/09 12:10:34;;;;;;;14.65;13.02;;;26.70;99.90;;;;;;4721839;30;20464;-74
2023/09/09 12:13:02;;;;;;;17.25;15.43;;;26.50;99.90;;;;;;4737521;30;20509;-74
2023/09/09 12:15:28;;;;;;;20.35;17.73;;;26.50;99.90;;;;;;4722285;30;20061;-74
2023/09/09 12:17:53;;;;;;;21.88;17.65;;;26.50;99.90;;;;;;4722130;30;20382;-74
2023/09/09 12:20:19;;;;;;;21.02;18.83;;;26.50;99.90;;;;;;4737537;30;20494;-74
2023/09/09 12:22:50;;;;;;;19.33;17.30;;;26.60;99.90;;;;;;4721699;30;20080;-74
2023/09/09 12:25:32;;;;;;;22.83;19.33;;;26.70;99.90;;;;;;4721896;30;20059;-74